sensor_id;sensor_type;location;lat;lon;timestamp;P1;P2;P0
42410;PMS5003;28056;51.112;0.984;2022-09-29T00:00:37;14;14;
42410;PMS5003;28056;51.112;0.984;2022-09-29T00:04:48;25;19;
42410;PMS5003;28056;51.112;0.984;2022-09-29T00:07:15;20;17;
42410;PMS5003;28056;51.112;0.984;2022-09-29T00:09:42;26;21;
42410;PMS5003;28056;51.112;0.984;2022-09-29T00:12:10;20;17;
42410;PMS5003;28056;51.112;0.984;2022-09-29T00:14:38;20;20;
42410;PMS5003;28056;51.112;0.984;2022-09-29T00:17:05;29;25;
42410;PMS5003;28056;51.112;0.984;2022-09-29T00:19:32;24;24;
42410;PMS5003;28056;51.112;0.984;2022-09-29T00:21:59;23;20;
42410;PMS5003;28056;51.112;0.984;2022-09-29T00:24:26;29;24;
42410;PMS5003;28056;51.112;0.984;2022-09-29T00:26:54;29;29;
42410;PMS5003;28056;51.112;0.984;2022-09-29T00:29:22;31;31;
42410;PMS5003;28056;51.112;0.984;2022-09-29T00:31:49;34;29;
42410;PMS5003;28056;51.112;0.984;2022-09-29T00:34:17;26;24;
42410;PMS5003;28056;51.112;0.984;2022-09-29T00:36:44;28;25;
42410;PMS5003;28056;51.112;0.984;2022-09-29T00:39:11;33;29;
42410;PMS5003;28056;51.112;0.984;2022-09-29T00:41:39;31;24;
42410;PMS5003;28056;51.112;0.984;2022-09-29T00:44:51;33;28;
42410;PMS5003;28056;51.112;0.984;2022-09-29T00:47:25;33;32;
42410;PMS5003;28056;51.112;0.984;2022-09-29T00:49:54;24;21;
42410;PMS5003;28056;51.112;0.984;2022-09-29T00:52:26;30;28;
42410;PMS5003;28056;51.112;0.984;2022-09-29T00:54:57;26;26;
42410;PMS5003;28056;51.112;0.984;2022-09-29T00:57:29;25;23;
42410;PMS5003;28056;51.112;0.984;2022-09-29T01:00:00;24;24;
42410;PMS5003;28056;51.112;0.984;2022-09-29T01:02:30;33;25;
42410;PMS5003;28056;51.112;0.984;2022-09-29T01:05:02;28;24;
42410;PMS5003;28056;51.112;0.984;2022-09-29T01:07:35;29;26;
42410;PMS5003;28056;51.112;0.984;2022-09-29T01:10:03;24;24;
42410;PMS5003;28056;51.112;0.984;2022-09-29T01:12:31;24;24;
42410;PMS5003;28056;51.112;0.984;2022-09-29T01:14:58;26;24;
42410;PMS5003;28056;51.112;0.984;2022-09-29T01:17:26;30;24;
42410;PMS5003;28056;51.112;0.984;2022-09-29T01:19:57;26;25;
42410;PMS5003;28056;51.112;0.984;2022-09-29T01:22:40;29;26;
42410;PMS5003;28056;51.112;0.984;2022-09-29T01:25:44;28;24;
42410;PMS5003;28056;51.112;0.984;2022-09-29T01:28:42;24;23;
42410;PMS5003;28056;51.112;0.984;2022-09-29T01:31:28;21;21;
42410;PMS5003;28056;51.112;0.984;2022-09-29T01:34:04;25;23;
42410;PMS5003;28056;51.112;0.984;2022-09-29T01:36:41;21;18;
42410;PMS5003;28056;51.112;0.984;2022-09-29T01:39:18;19;19;
42410;PMS5003;28056;51.112;0.984;2022-09-29T01:41:54;25;20;
42410;PMS5003;28056;51.112;0.984;2022-09-29T01:44:28;25;25;
42410;PMS5003;28056;51.112;0.984;2022-09-29T01:47:00;27;23;
42410;PMS5003;28056;51.112;0.984;2022-09-29T01:49:33;24;23;
42410;PMS5003;28056;51.112;0.984;2022-09-29T01:52:05;22;22;
42410;PMS5003;28056;51.112;0.984;2022-09-29T01:54:36;29;24;
42410;PMS5003;28056;51.112;0.984;2022-09-29T01:57:10;28;25;
42410;PMS5003;28056;51.112;0.984;2022-09-29T01:59:42;24;22;
42410;PMS5003;28056;51.112;0.984;2022-09-29T02:02:15;27;23;
42410;PMS5003;28056;51.112;0.984;2022-09-29T02:04:48;31;27;
42410;PMS5003;28056;51.112;0.984;2022-09-29T02:07:21;24;23;
42410;PMS5003;28056;51.112;0.984;2022-09-29T02:09:55;24;24;
42410;PMS5003;28056;51.112;0.984;2022-09-29T02:12:28;27;24;
42410;PMS5003;28056;51.112;0.984;2022-09-29T02:14:57;32;25;
42410;PMS5003;28056;51.112;0.984;2022-09-29T02:17:28;29;28;
42410;PMS5003;28056;51.112;0.984;2022-09-29T02:19:58;30;26;
42410;PMS5003;28056;51.112;0.984;2022-09-29T02:22:26;28;25;
42410;PMS5003;28056;51.112;0.984;2022-09-29T02:24:54;27;25;
42410;PMS5003;28056;51.112;0.984;2022-09-29T02:27:24;29;27;
42410;PMS5003;28056;51.112;0.984;2022-09-29T02:29:53;25;24;
42410;PMS5003;28056;51.112;0.984;2022-09-29T02:32:21;29;25;
42410;PMS5003;28056;51.112;0.984;2022-09-29T02:34:48;29;28;
42410;PMS5003;28056;51.112;0.984;2022-09-29T02:37:22;24;23;
42410;PMS5003;28056;51.112;0.984;2022-09-29T02:40:03;28;25;
42410;PMS5003;28056;51.112;0.984;2022-09-29T02:42:43;29;25;
42410;PMS5003;28056;51.112;0.984;2022-09-29T02:45:24;27;27;
42410;PMS5003;28056;51.112;0.984;2022-09-29T02:48:08;26;24;
42410;PMS5003;28056;51.112;0.984;2022-09-29T02:50:52;24;23;
42410;PMS5003;28056;51.112;0.984;2022-09-29T02:53:32;29;24;
42410;PMS5003;28056;51.112;0.984;2022-09-29T02:56:12;28;24;
42410;PMS5003;28056;51.112;0.984;2022-09-29T02:58:49;27;24;
42410;PMS5003;28056;51.112;0.984;2022-09-29T03:01:21;18;18;
42410;PMS5003;28056;51.112;0.984;2022-09-29T03:03:49;21;19;
42410;PMS5003;28056;51.112;0.984;2022-09-29T03:06:17;16;16;
42410;PMS5003;28056;51.112;0.984;2022-09-29T03:08:45;18;16;
42410;PMS5003;28056;51.112;0.984;2022-09-29T03:11:12;31;22;
42410;PMS5003;28056;51.112;0.984;2022-09-29T03:13:39;23;23;
42410;PMS5003;28056;51.112;0.984;2022-09-29T03:16:07;22;22;
42410;PMS5003;28056;51.112;0.984;2022-09-29T03:18:34;22;22;
42410;PMS5003;28056;51.112;0.984;2022-09-29T03:21:01;22;22;
42410;PMS5003;28056;51.112;0.984;2022-09-29T03:23:28;24;24;
42410;PMS5003;28056;51.112;0.984;2022-09-29T03:25:56;26;19;
42410;PMS5003;28056;51.112;0.984;2022-09-29T03:28:24;27;23;
42410;PMS5003;28056;51.112;0.984;2022-09-29T03:30:51;26;26;
42410;PMS5003;28056;51.112;0.984;2022-09-29T03:33:18;23;23;
42410;PMS5003;28056;51.112;0.984;2022-09-29T03:35:45;24;23;
42410;PMS5003;28056;51.112;0.984;2022-09-29T03:38:12;20;20;
42410;PMS5003;28056;51.112;0.984;2022-09-29T03:40:40;27;20;
42410;PMS5003;28056;51.112;0.984;2022-09-29T03:43:07;23;22;
42410;PMS5003;28056;51.112;0.984;2022-09-29T03:45:35;31;28;
42410;PMS5003;28056;51.112;0.984;2022-09-29T03:48:02;28;27;
42410;PMS5003;28056;51.112;0.984;2022-09-29T03:50:29;25;25;
42410;PMS5003;28056;51.112;0.984;2022-09-29T03:52:57;30;29;
42410;PMS5003;28056;51.112;0.984;2022-09-29T03:55:24;27;26;
42410;PMS5003;28056;51.112;0.984;2022-09-29T03:57:52;26;22;
42410;PMS5003;28056;51.112;0.984;2022-09-29T04:00:19;22;21;
42410;PMS5003;28056;51.112;0.984;2022-09-29T04:02:46;24;21;
42410;PMS5003;28056;51.112;0.984;2022-09-29T04:05:14;21;19;
42410;PMS5003;28056;51.112;0.984;2022-09-29T04:07:41;25;23;
42410;PMS5003;28056;51.112;0.984;2022-09-29T04:10:09;21;18;
42410;PMS5003;28056;51.112;0.984;2022-09-29T04:12:36;19;18;
42410;PMS5003;28056;51.112;0.984;2022-09-29T04:15:04;19;18;
42410;PMS5003;28056;51.112;0.984;2022-09-29T04:17:33;23;21;
42410;PMS5003;28056;51.112;0.984;2022-09-29T04:20:01;22;19;
42410;PMS5003;28056;51.112;0.984;2022-09-29T04:22:28;24;19;
42410;PMS5003;28056;51.112;0.984;2022-09-29T04:24:55;18;17;
42410;PMS5003;28056;51.112;0.984;2022-09-29T04:27:23;24;23;
42410;PMS5003;28056;51.112;0.984;2022-09-29T04:29:50;26;20;
42410;PMS5003;28056;51.112;0.984;2022-09-29T04:32:17;18;17;
42410;PMS5003;28056;51.112;0.984;2022-09-29T04:34:44;23;16;
42410;PMS5003;28056;51.112;0.984;2022-09-29T04:37:11;18;18;
42410;PMS5003;28056;51.112;0.984;2022-09-29T04:39:39;18;16;
42410;PMS5003;28056;51.112;0.984;2022-09-29T04:42:07;19;17;
42410;PMS5003;28056;51.112;0.984;2022-09-29T04:44:34;27;21;
42410;PMS5003;28056;51.112;0.984;2022-09-29T04:47:02;24;19;
42410;PMS5003;28056;51.112;0.984;2022-09-29T04:49:29;19;18;
42410;PMS5003;28056;51.112;0.984;2022-09-29T04:51:57;22;15;
42410;PMS5003;28056;51.112;0.984;2022-09-29T04:54:24;18;16;
42410;PMS5003;28056;51.112;0.984;2022-09-29T04:56:56;22;22;
42410;PMS5003;28056;51.112;0.984;2022-09-29T04:59:24;25;22;
42410;PMS5003;28056;51.112;0.984;2022-09-29T05:01:51;18;17;
42410;PMS5003;28056;51.112;0.984;2022-09-29T05:04:19;18;15;
42410;PMS5003;28056;51.112;0.984;2022-09-29T05:06:47;24;21;
42410;PMS5003;28056;51.112;0.984;2022-09-29T05:09:14;17;15;
42410;PMS5003;28056;51.112;0.984;2022-09-29T05:11:41;23;21;
42410;PMS5003;28056;51.112;0.984;2022-09-29T05:14:09;15;15;
42410;PMS5003;28056;51.112;0.984;2022-09-29T05:16:36;25;19;
42410;PMS5003;28056;51.112;0.984;2022-09-29T05:19:03;22;22;
42410;PMS5003;28056;51.112;0.984;2022-09-29T05:21:30;22;18;
42410;PMS5003;28056;51.112;0.984;2022-09-29T05:23:58;21;19;
42410;PMS5003;28056;51.112;0.984;2022-09-29T05:26:25;17;17;
42410;PMS5003;28056;51.112;0.984;2022-09-29T05:28:53;22;19;
42410;PMS5003;28056;51.112;0.984;2022-09-29T05:31:20;19;18;
42410;PMS5003;28056;51.112;0.984;2022-09-29T05:33:47;19;18;
42410;PMS5003;28056;51.112;0.984;2022-09-29T05:36:14;15;13;
42410;PMS5003;28056;51.112;0.984;2022-09-29T05:38:41;15;15;
42410;PMS5003;28056;51.112;0.984;2022-09-29T05:41:10;14;14;
42410;PMS5003;28056;51.112;0.984;2022-09-29T05:43:39;20;18;
42410;PMS5003;28056;51.112;0.984;2022-09-29T05:46:07;18;18;
42410;PMS5003;28056;51.112;0.984;2022-09-29T05:48:36;15;15;
42410;PMS5003;28056;51.112;0.984;2022-09-29T05:51:06;14;14;
42410;PMS5003;28056;51.112;0.984;2022-09-29T05:53:34;17;15;
42410;PMS5003;28056;51.112;0.984;2022-09-29T05:56:03;15;14;
42410;PMS5003;28056;51.112;0.984;2022-09-29T05:58:31;21;20;
42410;PMS5003;28056;51.112;0.984;2022-09-29T06:01:03;20;20;
42410;PMS5003;28056;51.112;0.984;2022-09-29T06:03:31;24;18;
42410;PMS5003;28056;51.112;0.984;2022-09-29T06:06:03;18;11;
42410;PMS5003;28056;51.112;0.984;2022-09-29T06:08:31;20;18;
42410;PMS5003;28056;51.112;0.984;2022-09-29T06:11:01;17;17;
42410;PMS5003;28056;51.112;0.984;2022-09-29T06:13:30;14;14;
42410;PMS5003;28056;51.112;0.984;2022-09-29T06:15:58;17;14;
42410;PMS5003;28056;51.112;0.984;2022-09-29T06:18:25;10;10;
42410;PMS5003;28056;51.112;0.984;2022-09-29T06:20:53;15;13;
42410;PMS5003;28056;51.112;0.984;2022-09-29T06:23:27;19;17;
42410;PMS5003;28056;51.112;0.984;2022-09-29T06:25:55;15;14;
42410;PMS5003;28056;51.112;0.984;2022-09-29T06:28:23;13;13;
42410;PMS5003;28056;51.112;0.984;2022-09-29T06:30:51;15;14;
42410;PMS5003;28056;51.112;0.984;2022-09-29T06:33:19;17;17;
42410;PMS5003;28056;51.112;0.984;2022-09-29T06:35:47;14;14;
42410;PMS5003;28056;51.112;0.984;2022-09-29T06:38:15;21;17;
42410;PMS5003;28056;51.112;0.984;2022-09-29T06:40:43;15;11;
42410;PMS5003;28056;51.112;0.984;2022-09-29T06:43:11;14;13;
42410;PMS5003;28056;51.112;0.984;2022-09-29T06:45:38;15;15;
42410;PMS5003;28056;51.112;0.984;2022-09-29T06:48:06;17;14;
42410;PMS5003;28056;51.112;0.984;2022-09-29T06:50:33;17;14;
42410;PMS5003;28056;51.112;0.984;2022-09-29T06:53:00;14;14;
42410;PMS5003;28056;51.112;0.984;2022-09-29T06:55:28;14;13;
42410;PMS5003;28056;51.112;0.984;2022-09-29T06:58:01;19;15;
42410;PMS5003;28056;51.112;0.984;2022-09-29T07:00:29;22;14;
42410;PMS5003;28056;51.112;0.984;2022-09-29T07:02:57;19;14;
42410;PMS5003;28056;51.112;0.984;2022-09-29T07:05:24;14;14;
42410;PMS5003;28056;51.112;0.984;2022-09-29T07:07:51;13;13;
42410;PMS5003;28056;51.112;0.984;2022-09-29T07:10:18;14;14;
42410;PMS5003;28056;51.112;0.984;2022-09-29T07:12:45;11;11;
42410;PMS5003;28056;51.112;0.984;2022-09-29T07:15:13;16;12;
42410;PMS5003;28056;51.112;0.984;2022-09-29T07:17:40;14;11;
42410;PMS5003;28056;51.112;0.984;2022-09-29T07:20:08;12;12;
42410;PMS5003;28056;51.112;0.984;2022-09-29T07:22:36;12;11;
42410;PMS5003;28056;51.112;0.984;2022-09-29T07:25:03;11;11;
42410;PMS5003;28056;51.112;0.984;2022-09-29T07:27:31;11;11;
42410;PMS5003;28056;51.112;0.984;2022-09-29T07:29:59;14;10;
42410;PMS5003;28056;51.112;0.984;2022-09-29T07:32:26;10;10;
42410;PMS5003;28056;51.112;0.984;2022-09-29T07:34:55;14;12;
42410;PMS5003;28056;51.112;0.984;2022-09-29T07:37:22;15;14;
42410;PMS5003;28056;51.112;0.984;2022-09-29T07:39:49;8;8;
42410;PMS5003;28056;51.112;0.984;2022-09-29T07:42:16;12;11;
42410;PMS5003;28056;51.112;0.984;2022-09-29T07:44:43;14;12;
42410;PMS5003;28056;51.112;0.984;2022-09-29T07:47:10;11;11;
42410;PMS5003;28056;51.112;0.984;2022-09-29T07:49:38;12;10;
42410;PMS5003;28056;51.112;0.984;2022-09-29T07:52:05;15;13;
42410;PMS5003;28056;51.112;0.984;2022-09-29T07:54:33;11;11;
42410;PMS5003;28056;51.112;0.984;2022-09-29T07:57:00;12;8;
42410;PMS5003;28056;51.112;0.984;2022-09-29T07:59:27;10;7;
42410;PMS5003;28056;51.112;0.984;2022-09-29T08:01:55;10;10;
42410;PMS5003;28056;51.112;0.984;2022-09-29T08:04:23;14;13;
42410;PMS5003;28056;51.112;0.984;2022-09-29T08:06:51;12;12;
42410;PMS5003;28056;51.112;0.984;2022-09-29T08:09:18;9;9;
42410;PMS5003;28056;51.112;0.984;2022-09-29T08:11:46;8;8;
42410;PMS5003;28056;51.112;0.984;2022-09-29T08:14:13;12;11;
42410;PMS5003;28056;51.112;0.984;2022-09-29T08:16:40;15;14;
42410;PMS5003;28056;51.112;0.984;2022-09-29T08:19:07;12;12;
42410;PMS5003;28056;51.112;0.984;2022-09-29T08:21:35;8;8;
42410;PMS5003;28056;51.112;0.984;2022-09-29T08:24:03;10;9;
42410;PMS5003;28056;51.112;0.984;2022-09-29T08:26:33;10;10;
42410;PMS5003;28056;51.112;0.984;2022-09-29T08:29:02;15;11;
42410;PMS5003;28056;51.112;0.984;2022-09-29T08:31:29;10;9;
42410;PMS5003;28056;51.112;0.984;2022-09-29T08:33:57;8;8;
42410;PMS5003;28056;51.112;0.984;2022-09-29T08:36:25;10;10;
42410;PMS5003;28056;51.112;0.984;2022-09-29T08:38:53;6;6;
42410;PMS5003;28056;51.112;0.984;2022-09-29T08:41:27;7;7;
42410;PMS5003;28056;51.112;0.984;2022-09-29T08:44:03;8;8;
42410;PMS5003;28056;51.112;0.984;2022-09-29T08:46:37;9;7;
42410;PMS5003;28056;51.112;0.984;2022-09-29T08:49:09;5;5;
42410;PMS5003;28056;51.112;0.984;2022-09-29T08:51:42;7;7;
42410;PMS5003;28056;51.112;0.984;2022-09-29T08:54:15;7;5;
42410;PMS5003;28056;51.112;0.984;2022-09-29T08:56:50;4;4;
42410;PMS5003;28056;51.112;0.984;2022-09-29T08:59:17;5;4;
42410;PMS5003;28056;51.112;0.984;2022-09-29T09:01:49;7;7;
42410;PMS5003;28056;51.112;0.984;2022-09-29T09:05:02;4;4;
42410;PMS5003;28056;51.112;0.984;2022-09-29T09:07:41;4;4;
42410;PMS5003;28056;51.112;0.984;2022-09-29T09:10:20;5;3;
42410;PMS5003;28056;51.112;0.984;2022-09-29T09:12:57;3;3;
42410;PMS5003;28056;51.112;0.984;2022-09-29T09:15:46;4;4;
42410;PMS5003;28056;51.112;0.984;2022-09-29T09:18:29;4;4;
42410;PMS5003;28056;51.112;0.984;2022-09-29T09:21:11;4;4;
42410;PMS5003;28056;51.112;0.984;2022-09-29T09:23:48;2;2;
42410;PMS5003;28056;51.112;0.984;2022-09-29T09:26:19;4;4;
42410;PMS5003;28056;51.112;0.984;2022-09-29T09:28:56;3;2;
42410;PMS5003;28056;51.112;0.984;2022-09-29T09:31:28;3;3;
42410;PMS5003;28056;51.112;0.984;2022-09-29T09:34:03;2;2;
42410;PMS5003;28056;51.112;0.984;2022-09-29T09:36:38;5;3;
42410;PMS5003;28056;51.112;0.984;2022-09-29T09:39:11;2;2;
42410;PMS5003;28056;51.112;0.984;2022-09-29T09:41:43;2;2;
42410;PMS5003;28056;51.112;0.984;2022-09-29T09:44:15;4;3;
42410;PMS5003;28056;51.112;0.984;2022-09-29T09:46:47;3;3;
42410;PMS5003;28056;51.112;0.984;2022-09-29T09:49:19;5;3;
42410;PMS5003;28056;51.112;0.984;2022-09-29T09:51:53;4;2;
42410;PMS5003;28056;51.112;0.984;2022-09-29T09:54:27;2;2;
42410;PMS5003;28056;51.112;0.984;2022-09-29T09:57:02;2;2;
42410;PMS5003;28056;51.112;0.984;2022-09-29T09:59:48;3;3;
42410;PMS5003;28056;51.112;0.984;2022-09-29T10:02:24;3;3;
42410;PMS5003;28056;51.112;0.984;2022-09-29T10:04:52;5;3;
42410;PMS5003;28056;51.112;0.984;2022-09-29T10:07:20;4;4;
42410;PMS5003;28056;51.112;0.984;2022-09-29T10:09:50;3;3;
42410;PMS5003;28056;51.112;0.984;2022-09-29T10:12:19;3;3;
42410;PMS5003;28056;51.112;0.984;2022-09-29T10:14:52;5;3;
42410;PMS5003;28056;51.112;0.984;2022-09-29T10:17:24;5;3;
42410;PMS5003;28056;51.112;0.984;2022-09-29T10:19:57;3;3;
42410;PMS5003;28056;51.112;0.984;2022-09-29T10:22:26;3;3;
42410;PMS5003;28056;51.112;0.984;2022-09-29T10:25:04;3;3;
42410;PMS5003;28056;51.112;0.984;2022-09-29T10:27:34;3;3;
42410;PMS5003;28056;51.112;0.984;2022-09-29T10:30:15;2;2;
42410;PMS5003;28056;51.112;0.984;2022-09-29T10:32:45;4;4;
42410;PMS5003;28056;51.112;0.984;2022-09-29T10:35:17;6;6;
42410;PMS5003;28056;51.112;0.984;2022-09-29T10:37:51;6;5;
42410;PMS5003;28056;51.112;0.984;2022-09-29T10:40:25;5;5;
42410;PMS5003;28056;51.112;0.984;2022-09-29T10:42:54;7;7;
42410;PMS5003;28056;51.112;0.984;2022-09-29T10:45:22;5;5;
42410;PMS5003;28056;51.112;0.984;2022-09-29T10:48:06;4;4;
42410;PMS5003;28056;51.112;0.984;2022-09-29T10:50:35;7;7;
42410;PMS5003;28056;51.112;0.984;2022-09-29T10:53:20;7;7;
42410;PMS5003;28056;51.112;0.984;2022-09-29T10:55:54;6;5;
42410;PMS5003;28056;51.112;0.984;2022-09-29T10:58:27;6;6;
42410;PMS5003;28056;51.112;0.984;2022-09-29T11:01:03;5;5;
42410;PMS5003;28056;51.112;0.984;2022-09-29T11:03:37;8;8;
42410;PMS5003;28056;51.112;0.984;2022-09-29T11:06:13;6;6;
42410;PMS5003;28056;51.112;0.984;2022-09-29T11:08:58;6;6;
42410;PMS5003;28056;51.112;0.984;2022-09-29T11:11:29;6;6;
42410;PMS5003;28056;51.112;0.984;2022-09-29T11:13:58;8;6;
42410;PMS5003;28056;51.112;0.984;2022-09-29T11:16:26;6;6;
42410;PMS5003;28056;51.112;0.984;2022-09-29T11:18:58;6;6;
42410;PMS5003;28056;51.112;0.984;2022-09-29T11:21:40;4;4;
42410;PMS5003;28056;51.112;0.984;2022-09-29T11:24:41;7;5;
42410;PMS5003;28056;51.112;0.984;2022-09-29T11:27:25;4;4;
42410;PMS5003;28056;51.112;0.984;2022-09-29T11:30:08;4;4;
42410;PMS5003;28056;51.112;0.984;2022-09-29T11:32:42;4;4;
42410;PMS5003;28056;51.112;0.984;2022-09-29T11:35:25;4;4;
42410;PMS5003;28056;51.112;0.984;2022-09-29T11:38:09;5;4;
42410;PMS5003;28056;51.112;0.984;2022-09-29T11:40:52;4;4;
42410;PMS5003;28056;51.112;0.984;2022-09-29T11:43:35;6;6;
42410;PMS5003;28056;51.112;0.984;2022-09-29T11:46:13;6;4;
42410;PMS5003;28056;51.112;0.984;2022-09-29T11:48:59;6;6;
42410;PMS5003;28056;51.112;0.984;2022-09-29T11:51:52;5;5;
42410;PMS5003;28056;51.112;0.984;2022-09-29T11:54:35;5;5;
42410;PMS5003;28056;51.112;0.984;2022-09-29T11:57:15;4;4;
42410;PMS5003;28056;51.112;0.984;2022-09-29T12:00:04;8;8;
42410;PMS5003;28056;51.112;0.984;2022-09-29T12:02:43;8;8;
42410;PMS5003;28056;51.112;0.984;2022-09-29T12:05:24;7;7;
42410;PMS5003;28056;51.112;0.984;2022-09-29T12:08:02;7;7;
42410;PMS5003;28056;51.112;0.984;2022-09-29T12:10:43;6;6;
42410;PMS5003;28056;51.112;0.984;2022-09-29T12:13:22;5;5;
42410;PMS5003;28056;51.112;0.984;2022-09-29T12:15:57;7;7;
42410;PMS5003;28056;51.112;0.984;2022-09-29T12:18:30;5;5;
42410;PMS5003;28056;51.112;0.984;2022-09-29T12:21:05;5;5;
42410;PMS5003;28056;51.112;0.984;2022-09-29T12:23:35;6;6;
42410;PMS5003;28056;51.112;0.984;2022-09-29T12:26:07;5;5;
42410;PMS5003;28056;51.112;0.984;2022-09-29T12:28:40;5;5;
42410;PMS5003;28056;51.112;0.984;2022-09-29T12:31:11;5;5;
42410;PMS5003;28056;51.112;0.984;2022-09-29T12:33:45;7;6;
42410;PMS5003;28056;51.112;0.984;2022-09-29T12:36:23;5;5;
42410;PMS5003;28056;51.112;0.984;2022-09-29T12:38:58;5;5;
42410;PMS5003;28056;51.112;0.984;2022-09-29T12:41:33;8;6;
42410;PMS5003;28056;51.112;0.984;2022-09-29T12:44:04;5;4;
42410;PMS5003;28056;51.112;0.984;2022-09-29T12:46:41;7;6;
42410;PMS5003;28056;51.112;0.984;2022-09-29T12:49:16;4;4;
42410;PMS5003;28056;51.112;0.984;2022-09-29T12:51:48;4;4;
42410;PMS5003;28056;51.112;0.984;2022-09-29T12:54:19;7;5;
42410;PMS5003;28056;51.112;0.984;2022-09-29T12:56:51;7;7;
42410;PMS5003;28056;51.112;0.984;2022-09-29T12:59:27;5;5;
42410;PMS5003;28056;51.112;0.984;2022-09-29T13:02:03;5;5;
42410;PMS5003;28056;51.112;0.984;2022-09-29T13:04:59;6;6;
42410;PMS5003;28056;51.112;0.984;2022-09-29T13:07:50;6;6;
42410;PMS5003;28056;51.112;0.984;2022-09-29T13:10:35;6;6;
42410;PMS5003;28056;51.112;0.984;2022-09-29T13:14:00;7;7;
42410;PMS5003;28056;51.112;0.984;2022-09-29T13:17:51;6;6;
42410;PMS5003;28056;51.112;0.984;2022-09-29T13:20:32;6;6;
42410;PMS5003;28056;51.112;0.984;2022-09-29T13:23:13;5;5;
42410;PMS5003;28056;51.112;0.984;2022-09-29T13:26:09;7;5;
42410;PMS5003;28056;51.112;0.984;2022-09-29T13:28:46;5;5;
42410;PMS5003;28056;51.112;0.984;2022-09-29T13:31:17;5;5;
42410;PMS5003;28056;51.112;0.984;2022-09-29T13:33:47;5;5;
42410;PMS5003;28056;51.112;0.984;2022-09-29T13:36:24;6;5;
42410;PMS5003;28056;51.112;0.984;2022-09-29T13:38:54;15;11;
42410;PMS5003;28056;51.112;0.984;2022-09-29T13:41:39;6;6;
42410;PMS5003;28056;51.112;0.984;2022-09-29T13:44:19;6;6;
42410;PMS5003;28056;51.112;0.984;2022-09-29T13:46:49;10;10;
42410;PMS5003;28056;51.112;0.984;2022-09-29T13:49:26;6;6;
42410;PMS5003;28056;51.112;0.984;2022-09-29T13:51:55;7;7;
42410;PMS5003;28056;51.112;0.984;2022-09-29T13:54:39;8;8;
42410;PMS5003;28056;51.112;0.984;2022-09-29T13:57:20;4;4;
42410;PMS5003;28056;51.112;0.984;2022-09-29T14:00:00;7;4;
42410;PMS5003;28056;51.112;0.984;2022-09-29T14:00:18;7;4;
42410;PMS5003;28056;51.112;0.984;2022-09-29T14:02:47;5;5;
42410;PMS5003;28056;51.112;0.984;2022-09-29T14:06:22;4;4;
42410;PMS5003;28056;51.112;0.984;2022-09-29T14:08:52;5;5;
42410;PMS5003;28056;51.112;0.984;2022-09-29T14:11:28;6;4;
42410;PMS5003;28056;51.112;0.984;2022-09-29T14:13:59;7;5;
42410;PMS5003;28056;51.112;0.984;2022-09-29T14:16:36;4;4;
42410;PMS5003;28056;51.112;0.984;2022-09-29T14:19:21;5;5;
42410;PMS5003;28056;51.112;0.984;2022-09-29T14:22:00;4;4;
42410;PMS5003;28056;51.112;0.984;2022-09-29T14:24:44;5;5;
42410;PMS5003;28056;51.112;0.984;2022-09-29T14:27:23;4;4;
42410;PMS5003;28056;51.112;0.984;2022-09-29T14:29:54;5;5;
42410;PMS5003;28056;51.112;0.984;2022-09-29T14:32:33;5;5;
42410;PMS5003;28056;51.112;0.984;2022-09-29T14:35:08;5;5;
42410;PMS5003;28056;51.112;0.984;2022-09-29T14:37:41;5;5;
42410;PMS5003;28056;51.112;0.984;2022-09-29T14:40:12;5;5;
42410;PMS5003;28056;51.112;0.984;2022-09-29T14:42:43;4;4;
42410;PMS5003;28056;51.112;0.984;2022-09-29T14:45:11;3;3;
42410;PMS5003;28056;51.112;0.984;2022-09-29T14:47:40;6;5;
42410;PMS5003;28056;51.112;0.984;2022-09-29T14:50:25;3;3;
42410;PMS5003;28056;51.112;0.984;2022-09-29T14:53:06;4;4;
42410;PMS5003;28056;51.112;0.984;2022-09-29T14:55:45;7;6;
42410;PMS5003;28056;51.112;0.984;2022-09-29T14:58:24;4;4;
42410;PMS5003;28056;51.112;0.984;2022-09-29T15:01:07;4;4;
42410;PMS5003;28056;51.112;0.984;2022-09-29T15:03:44;10;8;
42410;PMS5003;28056;51.112;0.984;2022-09-29T15:06:14;5;5;
42410;PMS5003;28056;51.112;0.984;2022-09-29T15:08:51;6;5;
42410;PMS5003;28056;51.112;0.984;2022-09-29T15:11:25;6;6;
42410;PMS5003;28056;51.112;0.984;2022-09-29T15:13:55;5;5;
42410;PMS5003;28056;51.112;0.984;2022-09-29T15:16:29;5;5;
42410;PMS5003;28056;51.112;0.984;2022-09-29T15:19:09;8;8;
42410;PMS5003;28056;51.112;0.984;2022-09-29T15:22:01;7;5;
42410;PMS5003;28056;51.112;0.984;2022-09-29T15:24:44;6;5;
42410;PMS5003;28056;51.112;0.984;2022-09-29T15:27:21;6;6;
42410;PMS5003;28056;51.112;0.984;2022-09-29T15:29:52;8;7;
42410;PMS5003;28056;51.112;0.984;2022-09-29T15:32:22;6;5;
42410;PMS5003;28056;51.112;0.984;2022-09-29T15:35:03;5;5;
42410;PMS5003;28056;51.112;0.984;2022-09-29T15:37:52;4;4;
42410;PMS5003;28056;51.112;0.984;2022-09-29T15:40:23;4;4;
42410;PMS5003;28056;51.112;0.984;2022-09-29T15:42:52;5;5;
42410;PMS5003;28056;51.112;0.984;2022-09-29T15:45:21;5;5;
42410;PMS5003;28056;51.112;0.984;2022-09-29T15:47:56;6;6;
42410;PMS5003;28056;51.112;0.984;2022-09-29T15:50:26;5;5;
42410;PMS5003;28056;51.112;0.984;2022-09-29T15:52:55;4;4;
42410;PMS5003;28056;51.112;0.984;2022-09-29T15:55:24;4;4;
42410;PMS5003;28056;51.112;0.984;2022-09-29T15:57:52;7;7;
42410;PMS5003;28056;51.112;0.984;2022-09-29T16:00:44;5;5;
42410;PMS5003;28056;51.112;0.984;2022-09-29T16:03:13;4;4;
42410;PMS5003;28056;51.112;0.984;2022-09-29T16:05:53;5;5;
42410;PMS5003;28056;51.112;0.984;2022-09-29T16:08:26;4;4;
42410;PMS5003;28056;51.112;0.984;2022-09-29T16:10:57;6;6;
42410;PMS5003;28056;51.112;0.984;2022-09-29T16:13:28;8;6;
42410;PMS5003;28056;51.112;0.984;2022-09-29T16:15:58;7;7;
42410;PMS5003;28056;51.112;0.984;2022-09-29T16:18:28;7;7;
42410;PMS5003;28056;51.112;0.984;2022-09-29T16:20:58;6;6;
42410;PMS5003;28056;51.112;0.984;2022-09-29T16:23:34;5;5;
42410;PMS5003;28056;51.112;0.984;2022-09-29T16:26:12;6;6;
42410;PMS5003;28056;51.112;0.984;2022-09-29T16:30:04;6;5;
42410;PMS5003;28056;51.112;0.984;2022-09-29T16:32:44;5;5;
42410;PMS5003;28056;51.112;0.984;2022-09-29T16:35:36;3;3;
42410;PMS5003;28056;51.112;0.984;2022-09-29T16:38:26;4;4;
42410;PMS5003;28056;51.112;0.984;2022-09-29T16:40:57;3;3;
42410;PMS5003;28056;51.112;0.984;2022-09-29T16:43:26;3;3;
42410;PMS5003;28056;51.112;0.984;2022-09-29T16:45:56;4;4;
42410;PMS5003;28056;51.112;0.984;2022-09-29T16:48:27;4;4;
42410;PMS5003;28056;51.112;0.984;2022-09-29T16:50:58;3;3;
42410;PMS5003;28056;51.112;0.984;2022-09-29T16:53:29;4;4;
42410;PMS5003;28056;51.112;0.984;2022-09-29T16:55:59;3;3;
42410;PMS5003;28056;51.112;0.984;2022-09-29T16:58:29;6;5;
42410;PMS5003;28056;51.112;0.984;2022-09-29T17:00:57;4;4;
42410;PMS5003;28056;51.112;0.984;2022-09-29T17:03:25;4;4;
42410;PMS5003;28056;51.112;0.984;2022-09-29T17:05:52;4;4;
42410;PMS5003;28056;51.112;0.984;2022-09-29T17:08:21;4;4;
42410;PMS5003;28056;51.112;0.984;2022-09-29T17:10:50;5;5;
42410;PMS5003;28056;51.112;0.984;2022-09-29T17:13:19;10;7;